Skip to main content

NOAA/GLERL Met Station at Muskegon, MI

Previous 3 Hours (2 minute increments)
See also Previous 5 Days (top of hour)
Jump down to Data
Switch to [English][Metric]
Zoom: Click and drag, Pan: shift-click and drag, Unzoom: double-click, Unzoom All






See also 1-day windrose plot


NOAA/GLERL Met Station at Muskegon, MI

Previous 3 Hours (2 minute increments)
See also Previous 5 Days (top of hour only)
Jump up to Graphs
Switch to [English][Metric]
                  Wind  Wind  Wind   Air   Dew   Rel     Sta   PAR
                   Spd   Gst   Dir  Temp    Pt   Hum    Pres uE/m2/
YYYY-MM-DD   EST   m/s   m/s   deg     C     C     %      mb   sec
2017-11-19 05:30  12.7  13.5   330   2.5  -2.9  67.6  988.90     2
2017-11-19 05:28  12.9  14.0   333   2.6  -2.6  68.6  988.80     2
2017-11-19 05:26  11.9  13.3   333   2.5  -2.5  69.3  988.70     2
2017-11-19 05:24  13.1  14.6   331   2.6  -2.6  68.4  988.60     2
2017-11-19 05:22  12.5  14.4   336   2.6  -2.5  69.2  988.60     2
2017-11-19 05:20  11.4  13.6   335   2.6  -2.6  68.6  988.60     2
2017-11-19 05:18  13.3  14.4   336   2.6  -2.9  67.2  988.60     2
2017-11-19 05:16  11.2  12.9   342   2.6  -3.4  64.6  988.50     2
2017-11-19 05:14  11.7  13.2   340   2.6  -2.9  67.1  988.50     2
2017-11-19 05:12  12.7  14.3   341   2.6  -2.9  66.8  988.50     2
2017-11-19 05:10  12.8  14.4   344   2.6  -3.0  66.5  988.50     2
2017-11-19 05:08  12.3  14.6   342   2.6  -2.7  68.0  988.50     2
2017-11-19 05:06  12.4  13.5   345   2.7  -2.6  68.3  988.50     2
2017-11-19 05:04  13.2  14.4   333   2.6  -2.5  68.9  988.50     2
2017-11-19 05:02  12.8  15.6   338   2.6  -2.9  67.1  988.40     2
2017-11-19 05:00  13.5  15.3   344   2.7  -2.6  68.1  988.30     2
2017-11-19 04:58  15.0  16.0   343   2.8  -2.7  66.9  988.20     2
2017-11-19 04:56  12.7  15.4   343   2.8  -2.9  66.0  988.10     2
2017-11-19 04:54  12.5  14.8   349   2.8  -2.5  68.2  988.10     2
2017-11-19 04:52  11.8  12.9   339   2.9  -2.1  69.5  988.10     2
2017-11-19 04:50  11.7  13.8   332   2.8  -2.1  70.3  988.10     2
2017-11-19 04:48  12.3  14.1   342   2.9  -2.0  70.2  988.10     2
2017-11-19 04:46  11.8  13.8   327   2.9  -2.0  70.2  988.10     2
2017-11-19 04:44  12.9  13.9   326   2.9  -2.0  69.9  988.00     2
2017-11-19 04:42  12.6  14.0   330   3.0  -1.6  71.5  987.90     2
2017-11-19 04:40  11.7  13.3   330   3.0  -2.1  69.2  987.90     2
2017-11-19 04:38  12.1  13.2   332   3.1  -1.8  70.4  987.90     2
2017-11-19 04:36  12.0  15.1   334   3.1  -1.6  71.4  987.90     2
2017-11-19 04:34  13.0  14.9   325   3.0  -1.7  71.4  987.90     2
2017-11-19 04:32  12.6  14.8   320   2.9  -1.5  72.7  988.00     2
2017-11-19 04:30  11.4  13.2   331   2.9  -1.7  71.5  988.00     2
2017-11-19 04:28  12.1  13.5   330   3.1  -1.4  72.1  988.10     2
2017-11-19 04:26  11.7  13.8   334   3.1  -1.5  71.6  988.10     2
2017-11-19 04:24  12.4  14.6   329   3.1  -1.3  73.0  988.10     2
2017-11-19 04:22  12.7  14.5   322   3.1  -1.6  71.0  988.00     2
2017-11-19 04:20  12.5  13.9   325   3.0  -1.6  71.7  988.00     2
2017-11-19 04:18  12.9  14.4   331   3.0  -1.5  72.2  988.00     2
2017-11-19 04:16  12.2  14.2   335   3.0  -1.5  72.0  988.00     2
2017-11-19 04:14  10.9  12.8   341   3.0  -1.3  73.2  988.00     2
2017-11-19 04:12  11.0  12.7   344   3.0  -1.3  73.1  988.00     2
2017-11-19 04:10  11.7  12.4   342   3.0  -1.7  71.2  988.00     2
2017-11-19 04:08  11.7  13.1   343   3.0  -1.4  72.9  988.00     2
2017-11-19 04:06  11.5  14.2   345   3.0  -1.8  70.8  988.00     2
2017-11-19 04:04  10.9  12.5   344   3.0  -1.8  70.9  988.00     2
2017-11-19 04:02  10.6  12.7   336   2.9  -1.6  72.2  988.00     2
2017-11-19 04:00  11.3  13.1   345   3.0  -1.5  72.1  988.00     2
2017-11-19 03:58  10.4  12.4   340   3.0  -1.3  73.4  988.00     2
2017-11-19 03:56  10.7  12.3   342   2.9  -1.7  71.8  988.00     2
2017-11-19 03:54   9.0  12.4   348   3.0  -1.6  71.9  988.00     2
2017-11-19 03:52  13.2  14.9   345   3.0  -1.4  72.9  988.00     2
2017-11-19 03:50  12.5  13.8   339   2.9  -1.6  72.4  988.00     2
2017-11-19 03:48  10.5  12.5   343   2.8  -2.0  70.6  988.00     2
2017-11-19 03:46  10.3  12.5   345   2.9  -1.9  70.9  988.00     2
2017-11-19 03:44  12.5  14.4   344   3.1  -1.3  72.7  988.00     2
2017-11-19 03:42  12.4  14.5   340   3.2  -0.7  75.8  988.00     2
2017-11-19 03:40  11.3  13.3   343   3.2  -0.7  75.5  988.00     2
2017-11-19 03:38  12.3  14.5   334   3.0  -1.4  72.8  987.90     2
2017-11-19 03:36  11.5  13.0   338   3.0  -1.4  72.9  988.00     2
2017-11-19 03:34  11.8  14.0   340   2.9  -1.5  72.9  987.80     2
2017-11-19 03:32  11.7  13.3   346   2.9  -1.8  71.4  987.80     2
2017-11-19 03:30  12.9  14.7   350   3.0  -1.6  71.5  987.80     2
2017-11-19 03:28  13.8  14.7   345   3.0  -1.5  72.5  987.80     2
2017-11-19 03:26  12.6  14.2   340   3.0  -1.2  73.7  987.80     2
2017-11-19 03:24  13.5  14.9   344   2.9  -1.6  72.5  987.70     2
2017-11-19 03:22  12.6  14.5   349   3.0  -1.3  73.5  987.70     2
2017-11-19 03:20  11.8  13.0   347   3.0  -1.0  74.8  987.60     2
2017-11-19 03:18  11.6  13.4   344   2.9  -1.2  74.5  987.60     2
2017-11-19 03:16  12.1  13.7   348   2.8  -1.4  73.8  987.60     2
2017-11-19 03:14  11.8  13.7   350   2.9  -1.2  74.5  987.50     2
2017-11-19 03:12  12.6  13.9   345   3.0  -1.0  75.2  987.50     2
2017-11-19 03:10  12.9  14.0   343   3.0  -0.8  76.0  987.50     2
2017-11-19 03:08  11.8  14.7   341   2.9  -1.1  75.0  987.50     2
2017-11-19 03:06   9.5  11.1   350   2.9  -1.2  74.2  987.40     2
2017-11-19 03:04  11.1  14.3   349   3.0  -0.9  75.3  987.40     2
2017-11-19 03:02  11.6  13.5   346   2.9  -1.2  74.5  987.40     2
2017-11-19 03:00  13.0  14.2   349   3.0  -1.2  73.8  987.40     2
2017-11-19 02:58  11.8  15.2   348   3.1  -0.8  75.4  987.40     2
2017-11-19 02:56  11.8  12.9   339   3.2  -0.4  77.1  987.40     2
2017-11-19 02:54  12.6  14.2   333   3.2  -0.2  78.4  987.40     2
2017-11-19 02:52  11.4  12.6   336   3.1  -0.6  76.6  987.30     2
2017-11-19 02:50  11.6  12.7   336   3.2  -0.6  76.0  987.30     2
2017-11-19 02:48  12.1  13.2   341   3.1  -0.8  75.4  987.20     2
2017-11-19 02:46  11.2  12.6   344   2.9  -0.8  76.6  987.20     2
2017-11-19 02:44   7.2  12.0   352   2.9  -1.1  75.2  987.20     2
2017-11-19 02:42   7.1  11.0     6   3.2  -0.9  74.2  987.10     2
2017-11-19 02:40  10.8  12.9   347   3.3  -1.0  73.5  987.10     2
2017-11-19 02:38  11.8  12.9   344   3.2  -0.9  74.6  987.10     2
2017-11-19 02:36  12.1  13.5   340   3.2  -0.7  75.4  987.00     2
2017-11-19 02:34  10.0  12.5   341   2.9  -0.7  77.2  986.90     2
2017-11-19 02:32  10.6  13.1   347   2.5  -0.4  81.2  987.00     2
2017-11-19 02:30   8.7  13.2   349   1.6  -0.6  85.5  987.00     2